Time;durP1;ratioP1;P1;durP2;ratioP2;P2;SDS_P1;SDS_P2;PMS_P1;PMS_P2;Temp;Humidity;BMP_temperature;BMP_pressure;BME280_temperature;BME280_humidity;BME280_pressure;Samples;Min_cycle;Max_cycle;Signal;HPM_P1;HPM_P2
2022/07/27 00:02:19;;;;;;;2.28;0.80;;;13.40;99.90;;;;;;5034311;28;20868;-73
2022/07/27 00:04:50;;;;;;;3.22;0.55;;;13.50;99.90;;;;;;5034448;28;20198;-73
2022/07/27 00:07:21;;;;;;;3.25;0.60;;;13.60;99.90;;;;;;5034608;28;20213;-73
2022/07/27 00:09:51;;;;;;;3.03;0.70;;;13.70;99.90;;;;;;5034600;28;20626;-74
2022/07/27 00:12:24;;;;;;;2.72;0.70;;;13.80;99.90;;;;;;5034260;28;20186;-72
2022/07/27 00:14:57;;;;;;;3.47;0.90;;;13.80;99.90;;;;;;5034265;28;20198;-73
2022/07/27 00:17:28;;;;;;;1.58;0.65;;;13.90;99.90;;;;;;5034338;28;20195;-73
2022/07/27 00:19:59;;;;;;;2.05;0.80;;;14.00;99.90;;;;;;5034200;28;20201;-75
2022/07/27 00:22:29;;;;;;;2.90;0.75;;;14.10;99.90;;;;;;5033962;28;20190;-73
2022/07/27 00:25:00;;;;;;;2.22;0.70;;;14.20;99.90;;;;;;5034024;28;20194;-73
2022/07/27 00:27:32;;;;;;;3.83;0.75;;;14.30;99.90;;;;;;5034265;28;20202;-74
2022/07/27 00:30:03;;;;;;;1.10;0.50;;;14.40;99.90;;;;;;5034165;28;20195;-74
2022/07/27 00:32:34;;;;;;;2.30;0.80;;;14.60;99.90;;;;;;5033822;28;20634;-72
2022/07/27 00:35:04;;;;;;;3.55;0.40;;;14.60;99.90;;;;;;5034902;28;20242;-72
2022/07/27 00:37:35;;;;;;;4.10;0.73;;;14.70;99.90;;;;;;5027681;28;20233;-73
2022/07/27 00:40:06;;;;;;;1.80;0.60;;;14.80;99.90;;;;;;5033966;28;20190;-73
2022/07/27 00:42:39;;;;;;;2.75;0.60;;;14.80;99.90;;;;;;5033705;28;20244;-74
2022/07/27 00:45:11;;;;;;;3.05;0.57;;;14.80;99.90;;;;;;5033823;28;20565;-74
2022/07/27 00:47:41;;;;;;;4.40;0.63;;;15.00;99.90;;;;;;5033596;28;20213;-73
2022/07/27 00:50:12;;;;;;;2.17;0.80;;;15.10;99.90;;;;;;5033724;28;20198;-74
2022/07/27 00:52:44;;;;;;;3.17;0.80;;;15.20;99.90;;;;;;5033684;28;21035;-73
2022/07/27 00:55:15;;;;;;;2.30;0.63;;;15.20;99.90;;;;;;5033251;28;20221;-73
2022/07/27 00:57:47;;;;;;;0.82;0.35;;;15.30;99.90;;;;;;5033719;28;20609;-72
2022/07/27 01:00:20;;;;;;;0.77;0.43;;;15.40;99.90;;;;;;5033088;28;20190;-73
2022/07/27 01:02:50;;;;;;;2.70;0.70;;;15.50;99.90;;;;;;5033093;28;20191;-73
2022/07/27 01:05:21;;;;;;;1.80;0.60;;;15.50;99.90;;;;;;5033237;28;20554;-73
2022/07/27 01:07:52;;;;;;;3.47;0.50;;;15.50;99.90;;;;;;5033192;28;20578;-73
2022/07/27 01:10:23;;;;;;;1.90;0.60;;;15.60;99.90;;;;;;5033392;28;20663;-73
2022/07/27 01:12:56;;;;;;;1.80;0.57;;;15.60;99.90;;;;;;5033336;28;20194;-73
2022/07/27 01:15:27;;;;;;;2.58;0.93;;;15.60;99.90;;;;;;5032926;28;20210;-73
2022/07/27 01:17:58;;;;;;;1.83;0.50;;;15.70;99.90;;;;;;5033038;28;20194;-73
2022/07/27 01:20:28;;;;;;;1.50;0.63;;;15.70;99.90;;;;;;5032789;28;20190;-73
2022/07/27 01:23:01;;;;;;;3.88;0.60;;;15.80;99.90;;;;;;5033172;28;20670;-74
2022/07/27 01:25:31;;;;;;;1.58;0.85;;;15.90;99.90;;;;;;5033308;28;20641;-74
2022/07/27 01:28:02;;;;;;;2.22;0.60;;;16.00;99.90;;;;;;5031889;28;20191;-74
2022/07/27 01:30:34;;;;;;;2.63;0.55;;;16.10;99.90;;;;;;5032657;28;20198;-76
2022/07/27 01:33:05;;;;;;;1.67;0.50;;;16.10;99.90;;;;;;5032717;28;20205;-74
2022/07/27 01:35:36;;;;;;;2.15;0.60;;;16.10;99.90;;;;;;5040951;28;20246;-74
2022/07/27 01:38:10;;;;;;;2.65;0.70;;;16.10;99.90;;;;;;5035360;28;20198;-73
2022/07/27 01:40:41;;;;;;;2.70;0.80;;;16.10;99.90;;;;;;5037798;28;20190;-73
2022/07/27 01:43:12;;;;;;;2.65;0.60;;;16.20;99.90;;;;;;5035387;28;20194;-74
2022/07/27 01:45:42;;;;;;;2.53;0.60;;;16.30;99.90;;;;;;5012925;28;20195;-72
2022/07/27 01:48:13;;;;;;;3.75;0.77;;;16.50;99.90;;;;;;5013136;28;20188;-73
2022/07/27 01:50:44;;;;;;;2.85;0.60;;;16.50;99.90;;;;;;5013092;28;20270;-73
2022/07/27 01:53:17;;;;;;;1.73;0.55;;;16.50;99.90;;;;;;5013029;28;20191;-75
2022/07/27 01:55:48;;;;;;;2.13;0.60;;;16.40;99.90;;;;;;5025318;28;20218;-73
2022/07/27 01:58:19;;;;;;;2.42;0.63;;;16.50;99.90;;;;;;5032967;28;20216;-73
2022/07/27 02:00:51;;;;;;;2.35;0.50;;;16.50;99.90;;;;;;5031798;28;20193;-73
2022/07/27 02:03:21;;;;;;;1.80;0.82;;;16.50;99.90;;;;;;5032601;28;20244;-74
2022/07/27 02:05:52;;;;;;;1.50;0.50;;;16.50;99.90;;;;;;5032117;28;20680;-73
2022/07/27 02:08:24;;;;;;;4.35;0.70;;;16.60;99.90;;;;;;5032577;28;20702;-74
2022/07/27 02:13:49;;;;;;;0.50;0.32;;;16.60;99.90;;;;;;4997884;28;20278;-75
2022/07/27 02:16:21;;;;;;;2.30;0.55;;;16.60;99.90;;;;;;5035837;28;20210;-73
2022/07/27 02:18:51;;;;;;;2.47;0.60;;;16.80;99.90;;;;;;5036555;28;20190;-74
2022/07/27 02:21:22;;;;;;;2.17;0.40;;;16.80;99.90;;;;;;5036319;28;20190;-74
2022/07/27 02:23:54;;;;;;;2.13;0.82;;;16.90;99.90;;;;;;5035510;28;20209;-74
2022/07/27 02:26:26;;;;;;;2.15;0.55;;;16.80;99.90;;;;;;5035955;28;20647;-75
2022/07/27 02:28:56;;;;;;;2.00;0.45;;;16.90;99.90;;;;;;5036250;28;20699;-73
2022/07/27 02:31:27;;;;;;;2.28;0.52;;;16.80;99.90;;;;;;5036034;28;20198;-74
2022/07/27 02:33:58;;;;;;;3.03;0.73;;;17.00;99.90;;;;;;5036267;28;20202;-74
2022/07/27 02:36:29;;;;;;;2.10;0.40;;;17.10;99.90;;;;;;5042814;28;20241;-77
2022/07/27 02:39:01;;;;;;;3.00;0.73;;;17.10;99.90;;;;;;5025533;28;20614;-75
2022/07/27 02:41:32;;;;;;;3.00;0.50;;;17.20;99.90;;;;;;5035858;28;20195;-74
2022/07/27 02:44:02;;;;;;;4.28;1.00;;;17.20;99.90;;;;;;5034838;28;20198;-77
2022/07/27 02:46:33;;;;;;;2.17;0.77;;;17.20;99.90;;;;;;5035590;28;20195;-74
2022/07/27 02:49:04;;;;;;;4.20;0.65;;;17.30;99.90;;;;;;5035906;28;20202;-74
2022/07/27 02:51:35;;;;;;;1.70;0.60;;;17.40;99.90;;;;;;5035433;28;20202;-73
2022/07/27 02:54:07;;;;;;;1.33;0.52;;;17.50;99.90;;;;;;5035321;28;20194;-76
2022/07/27 02:56:38;;;;;;;2.92;0.52;;;17.60;99.90;;;;;;5035721;28;20678;-77
2022/07/27 02:59:08;;;;;;;1.50;0.50;;;17.60;99.90;;;;;;5035696;28;20638;-76
2022/07/27 03:01:39;;;;;;;0.88;0.40;;;17.60;99.90;;;;;;5035938;28;20206;-74
2022/07/27 03:04:10;;;;;;;2.78;0.50;;;17.60;99.90;;;;;;5035843;28;20255;-73
2022/07/27 03:06:40;;;;;;;1.30;0.47;;;17.50;99.90;;;;;;5034446;28;20191;-74
2022/07/27 03:09:13;;;;;;;2.17;0.63;;;17.50;99.90;;;;;;5035516;28;20198;-73
2022/07/27 03:11:44;;;;;;;1.48;0.50;;;17.50;99.90;;;;;;5035229;28;20198;-75
2022/07/27 03:14:14;;;;;;;2.47;0.50;;;17.60;99.90;;;;;;5035197;28;20197;-75
2022/07/27 03:16:45;;;;;;;3.97;0.65;;;17.60;99.90;;;;;;5034930;28;20288;-74
2022/07/27 03:19:16;;;;;;;2.28;0.70;;;17.60;99.90;;;;;;5037109;28;20558;-74
2022/07/27 03:21:47;;;;;;;1.98;0.80;;;17.70;99.90;;;;;;5045163;28;20198;-76
2022/07/27 03:24:19;;;;;;;1.20;0.60;;;17.70;99.90;;;;;;5032897;28;20699;-73
2022/07/27 03:26:50;;;;;;;1.88;0.60;;;17.70;99.90;;;;;;5041433;28;20196;-77
2022/07/27 03:29:20;;;;;;;2.22;0.50;;;17.70;99.90;;;;;;5041624;28;20186;-75
2022/07/27 03:31:51;;;;;;;1.95;0.47;;;17.80;99.90;;;;;;5036389;28;20260;-76
2022/07/27 03:34:22;;;;;;;2.20;0.80;;;17.90;99.90;;;;;;5044964;28;20214;-73
2022/07/27 03:36:52;;;;;;;2.38;0.70;;;17.90;99.90;;;;;;5043698;28;20233;-73
2022/07/27 03:39:25;;;;;;;1.23;0.50;;;17.90;99.90;;;;;;5052086;28;20190;-73
2022/07/27 03:41:56;;;;;;;2.95;0.75;;;17.90;99.90;;;;;;5041136;28;20194;-74
2022/07/27 03:44:26;;;;;;;2.63;0.45;;;17.90;99.90;;;;;;5038288;28;20190;-74
2022/07/27 03:46:57;;;;;;;2.78;0.63;;;18.00;99.90;;;;;;5035012;28;20190;-76
2022/07/27 03:49:28;;;;;;;1.90;0.40;;;17.90;99.90;;;;;;5046431;28;20276;-73
2022/07/27 03:51:59;;;;;;;3.67;0.47;;;17.90;99.90;;;;;;5040638;28;20205;-73
2022/07/27 03:54:31;;;;;;;2.17;0.52;;;17.90;99.90;;;;;;5039760;28;20190;-74
2022/07/27 03:57:02;;;;;;;2.92;0.55;;;18.00;99.90;;;;;;5034751;28;20217;-74
2022/07/27 03:59:33;;;;;;;2.03;0.60;;;17.90;99.90;;;;;;5037997;28;20245;-75
2022/07/27 04:02:03;;;;;;;1.48;0.50;;;17.90;99.90;;;;;;5042724;28;20205;-75
2022/07/27 04:04:34;;;;;;;2.58;0.50;;;18.00;99.90;;;;;;5041765;28;20197;-76
2022/07/27 04:07:05;;;;;;;1.88;0.60;;;18.00;99.90;;;;;;5052881;28;20186;-77
2022/07/27 04:09:37;;;;;;;4.38;0.80;;;18.00;99.90;;;;;;5035782;28;20197;-77
2022/07/27 04:12:08;;;;;;;2.15;0.70;;;18.00;99.90;;;;;;5035323;28;20195;-77
2022/07/27 04:14:39;;;;;;;1.52;0.60;;;18.00;99.90;;;;;;5044184;28;20667;-77
2022/07/27 04:17:09;;;;;;;2.92;0.90;;;18.10;99.90;;;;;;5040746;28;20218;-77
2022/07/27 04:19:40;;;;;;;1.38;0.40;;;18.20;99.90;;;;;;5026074;28;20588;-76
2022/07/27 04:22:11;;;;;;;1.35;0.45;;;18.20;99.90;;;;;;5033970;28;20642;-77
2022/07/27 04:24:43;;;;;;;2.53;0.50;;;18.10;99.90;;;;;;5032632;28;20213;-77
2022/07/27 04:27:14;;;;;;;0.80;0.30;;;18.00;99.90;;;;;;5014438;28;20203;-77
2022/07/27 04:29:44;;;;;;;3.13;0.43;;;18.00;99.90;;;;;;5022408;28;20217;-74
2022/07/27 04:32:15;;;;;;;0.77;0.40;;;18.00;99.90;;;;;;5042094;28;20194;-74
2022/07/27 04:34:46;;;;;;;2.78;0.60;;;18.00;99.90;;;;;;5036255;28;20226;-76
2022/07/27 04:37:16;;;;;;;1.88;0.57;;;18.00;99.90;;;;;;5043525;28;20244;-78
2022/07/27 04:39:49;;;;;;;1.58;0.40;;;18.00;99.90;;;;;;5050258;28;20683;-76
2022/07/27 04:42:20;;;;;;;1.40;0.40;;;18.10;99.90;;;;;;5039433;28;20193;-76
2022/07/27 04:44:50;;;;;;;2.35;0.50;;;18.10;99.90;;;;;;5043221;28;20687;-76
2022/07/27 04:47:21;;;;;;;1.30;0.32;;;18.10;99.90;;;;;;5034058;28;20198;-74
2022/07/27 04:49:51;;;;;;;2.13;0.65;;;18.10;99.90;;;;;;5050544;28;20190;-78
2022/07/27 04:52:22;;;;;;;1.55;0.57;;;18.10;99.90;;;;;;5042478;28;20198;-77
2022/07/27 04:54:56;;;;;;;1.80;0.50;;;18.10;99.90;;;;;;5051736;28;20193;-77
2022/07/27 04:57:27;;;;;;;1.33;0.50;;;18.00;99.90;;;;;;5038233;28;20218;-76
2022/07/27 04:59:57;;;;;;;2.67;0.50;;;18.20;99.90;;;;;;5040674;28;20546;-78
2022/07/27 05:02:30;;;;;;;3.35;0.43;;;18.10;99.90;;;;;;5049774;28;20186;-76
2022/07/27 05:05:02;;;;;;;1.90;0.65;;;18.10;99.90;;;;;;5045671;28;20193;-77
2022/07/27 05:07:32;;;;;;;2.20;0.65;;;18.10;99.90;;;;;;5037276;28;20198;-76
2022/07/27 05:10:05;;;;;;;4.07;1.08;;;18.00;99.90;;;;;;5042295;28;20193;-77
2022/07/27 05:12:36;;;;;;;4.32;0.40;;;18.00;99.90;;;;;;5039840;28;20210;-77
2022/07/27 05:15:07;;;;;;;2.75;0.40;;;18.20;99.90;;;;;;5037488;28;20194;-77
2022/07/27 05:17:38;;;;;;;1.17;0.40;;;18.20;99.90;;;;;;5030221;28;20296;-78
2022/07/27 05:20:10;;;;;;;0.80;0.40;;;18.10;99.90;;;;;;5034543;28;20186;-77
2022/07/27 05:22:40;;;;;;;3.10;0.40;;;18.10;99.90;;;;;;5034982;28;20273;-78
2022/07/27 05:25:13;;;;;;;1.75;0.40;;;18.00;99.90;;;;;;5042793;28;20664;-77
2022/07/27 05:27:44;;;;;;;1.77;0.45;;;18.00;99.90;;;;;;5041424;28;20202;-77
2022/07/27 05:30:15;;;;;;;2.35;0.50;;;18.00;99.90;;;;;;5040779;28;20216;-76
2022/07/27 05:32:46;;;;;;;1.33;0.43;;;17.90;99.90;;;;;;5041869;28;20194;-76
2022/07/27 05:35:17;;;;;;;2.58;0.63;;;17.90;99.90;;;;;;5038553;28;20712;-76
2022/07/27 05:37:47;;;;;;;2.15;0.50;;;17.80;99.90;;;;;;5042077;28;20576;-75
2022/07/27 05:40:20;;;;;;;2.53;0.45;;;17.90;99.90;;;;;;5037425;28;20642;-74
2022/07/27 05:42:51;;;;;;;3.65;0.57;;;17.90;99.90;;;;;;5039935;28;20237;-76
2022/07/27 05:45:21;;;;;;;1.55;0.50;;;17.90;99.90;;;;;;5050121;28;20197;-76
2022/07/27 05:47:53;;;;;;;1.42;0.50;;;18.00;99.90;;;;;;5038820;28;20197;-76
2022/07/27 05:50:24;;;;;;;1.98;0.60;;;17.90;99.90;;;;;;5052776;28;20193;-75
2022/07/27 05:52:56;;;;;;;4.85;0.65;;;17.90;99.90;;;;;;5039671;28;20217;-74
2022/07/27 05:55:29;;;;;;;1.70;0.60;;;17.90;99.90;;;;;;5052573;28;20193;-76
2022/07/27 05:57:59;;;;;;;3.95;0.70;;;17.80;99.90;;;;;;5040117;28;20214;-75
2022/07/27 06:00:30;;;;;;;1.95;0.50;;;17.80;99.90;;;;;;5040337;28;20194;-75
2022/07/27 06:03:01;;;;;;;1.60;0.50;;;17.80;99.90;;;;;;5038537;28;20202;-75
2022/07/27 06:05:31;;;;;;;2.45;0.60;;;17.80;99.90;;;;;;5045364;28;20550;-73
2022/07/27 06:08:02;;;;;;;4.07;0.70;;;17.80;99.90;;;;;;5012820;28;20634;-74
2022/07/27 06:10:35;;;;;;;1.85;0.60;;;17.80;99.90;;;;;;5036665;28;20197;-74
2022/07/27 06:13:07;;;;;;;1.85;0.65;;;17.80;99.90;;;;;;5042097;28;20199;-76
2022/07/27 06:15:39;;;;;;;3.70;0.90;;;17.90;99.90;;;;;;5044782;28;20196;-75
2022/07/27 06:18:16;;;;;;;4.25;0.70;;;17.80;99.90;;;;;;5036002;28;20214;-74
2022/07/27 06:20:47;;;;;;;1.42;0.47;;;17.70;99.90;;;;;;5032986;28;20649;-75
2022/07/27 06:23:18;;;;;;;2.38;0.70;;;17.60;99.90;;;;;;5031906;28;20191;-76
2022/07/27 06:25:50;;;;;;;3.63;0.90;;;17.50;99.90;;;;;;5023040;28;20194;-76
2022/07/27 06:28:21;;;;;;;2.55;0.70;;;17.40;99.90;;;;;;5032433;28;20223;-74
2022/07/27 06:30:52;;;;;;;2.55;0.73;;;17.30;99.90;;;;;;5017882;28;20217;-75
2022/07/27 06:33:26;;;;;;;3.97;0.68;;;17.20;99.90;;;;;;5040050;28;20191;-76
2022/07/27 06:35:57;;;;;;;2.05;0.80;;;17.20;99.90;;;;;;5044150;28;20240;-75
2022/07/27 06:38:28;;;;;;;3.65;0.80;;;17.10;99.90;;;;;;5032236;28;20233;-75
2022/07/27 06:41:02;;;;;;;3.55;1.08;;;17.00;99.90;;;;;;5038517;28;20213;-74
2022/07/27 06:43:34;;;;;;;2.90;1.00;;;17.00;99.90;;;;;;5044240;28;20198;-75
2022/07/27 06:46:06;;;;;;;5.60;0.88;;;16.90;99.90;;;;;;5039999;28;20197;-75
2022/07/27 06:48:36;;;;;;;3.13;0.85;;;16.80;99.90;;;;;;5047128;28;20244;-74
2022/07/27 06:51:07;;;;;;;1.95;0.70;;;16.70;99.90;;;;;;5033209;28;20649;-76
2022/07/27 06:53:38;;;;;;;2.50;0.73;;;16.70;99.90;;;;;;5038930;28;20194;-72
2022/07/27 06:56:11;;;;;;;4.00;0.85;;;16.60;99.90;;;;;;5052146;28;20193;-73
2022/07/27 06:58:42;;;;;;;1.55;0.75;;;16.60;99.90;;;;;;5045320;28;20209;-73
2022/07/27 07:01:13;;;;;;;3.53;0.90;;;16.40;99.90;;;;;;5046454;28;20194;-72
2022/07/27 07:03:43;;;;;;;5.18;0.88;;;16.30;99.90;;;;;;5047051;28;20202;-73
2022/07/27 07:06:14;;;;;;;3.00;0.90;;;16.30;99.90;;;;;;5043133;28;20190;-72
2022/07/27 07:08:45;;;;;;;3.25;0.73;;;16.20;99.90;;;;;;5041122;28;20190;-76
2022/07/27 07:11:17;;;;;;;3.08;0.80;;;16.10;99.90;;;;;;5043112;28;20197;-74
2022/07/27 07:13:48;;;;;;;2.53;0.80;;;16.00;99.90;;;;;;5042557;28;20194;-75
2022/07/27 07:16:19;;;;;;;2.72;0.80;;;15.90;99.90;;;;;;5044880;28;20587;-73
2022/07/27 07:18:49;;;;;;;3.45;0.68;;;15.90;99.90;;;;;;5043019;28;20229;-76
2022/07/27 07:21:20;;;;;;;2.88;0.70;;;15.90;99.90;;;;;;5034053;28;20191;-73
2022/07/27 07:23:51;;;;;;;4.15;1.05;;;15.70;99.90;;;;;;5045332;28;20239;-73
2022/07/27 07:26:23;;;;;;;2.70;0.93;;;15.70;99.90;;;;;;5040541;28;20202;-77
2022/07/27 07:28:54;;;;;;;4.50;1.30;;;15.60;99.90;;;;;;5041868;28;20193;-77
2022/07/27 07:31:25;;;;;;;3.00;0.85;;;15.60;99.90;;;;;;5043838;28;20195;-74
2022/07/27 07:33:56;;;;;;;3.53;1.00;;;15.50;99.90;;;;;;5047759;28;20195;-77
2022/07/27 07:36:26;;;;;;;2.35;1.00;;;15.50;99.90;;;;;;5036533;28;20242;-77
2022/07/27 07:38:57;;;;;;;5.13;1.20;;;15.40;99.90;;;;;;5044454;28;20210;-76
2022/07/27 07:41:29;;;;;;;3.75;1.00;;;15.30;99.90;;;;;;5050410;28;20208;-74
2022/07/27 07:44:00;;;;;;;3.65;0.82;;;15.30;99.90;;;;;;5054082;28;20190;-76
2022/07/27 07:46:31;;;;;;;3.53;1.30;;;15.20;99.90;;;;;;5042540;28;20202;-75
2022/07/27 07:49:02;;;;;;;5.25;1.33;;;15.20;99.90;;;;;;5033822;28;20246;-76
2022/07/27 07:51:32;;;;;;;3.78;1.30;;;15.20;99.90;;;;;;5034845;28;20196;-75
2022/07/27 07:54:03;;;;;;;5.25;1.40;;;15.10;99.90;;;;;;5035091;28;20229;-76
2022/07/27 07:56:36;;;;;;;4.15;1.35;;;15.00;99.90;;;;;;5034290;28;20198;-75
2022/07/27 07:59:06;;;;;;;5.35;1.50;;;15.00;99.90;;;;;;5034711;28;20233;-75
2022/07/27 08:01:37;;;;;;;2.72;1.25;;;14.90;99.90;;;;;;5034924;28;20190;-75
2022/07/27 08:04:08;;;;;;;6.35;1.80;;;14.90;99.90;;;;;;5034491;28;20190;-75
2022/07/27 08:06:39;;;;;;;5.63;1.55;;;14.80;99.90;;;;;;5033462;28;20205;-75
2022/07/27 08:09:11;;;;;;;5.00;1.70;;;14.70;99.90;;;;;;5031450;28;20613;-75
2022/07/27 08:11:44;;;;;;;4.55;1.55;;;14.70;99.90;;;;;;5034458;28;20277;-75
2022/07/27 08:14:15;;;;;;;5.90;1.60;;;14.60;99.90;;;;;;5030322;28;20195;-75
2022/07/27 08:16:45;;;;;;;2.53;1.40;;;14.60;99.90;;;;;;5014493;28;20232;-75
2022/07/27 08:19:16;;;;;;;3.60;1.38;;;14.50;99.90;;;;;;5014578;28;20230;-75
2022/07/27 08:21:47;;;;;;;5.65;1.90;;;14.50;99.90;;;;;;5017694;28;20186;-75
2022/07/27 08:24:17;;;;;;;4.97;1.60;;;14.50;99.90;;;;;;5033985;28;20195;-75
2022/07/27 08:26:50;;;;;;;5.75;1.67;;;14.50;99.90;;;;;;5033923;28;20201;-76
2022/07/27 08:29:20;;;;;;;4.45;1.20;;;14.50;99.90;;;;;;5033699;28;20197;-75
2022/07/27 08:31:51;;;;;;;3.08;1.40;;;14.50;99.90;;;;;;5030280;28;20193;-75
2022/07/27 08:34:22;;;;;;;5.38;1.70;;;14.50;99.90;;;;;;5034847;28;20210;-75
2022/07/27 08:36:52;;;;;;;3.60;1.30;;;14.50;99.90;;;;;;5028861;28;20230;-76
2022/07/27 08:39:23;;;;;;;3.15;1.40;;;14.50;99.90;;;;;;5033679;28;20214;-76
2022/07/27 08:41:56;;;;;;;4.85;1.35;;;14.50;99.90;;;;;;5033471;28;20194;-75
2022/07/27 08:44:28;;;;;;;4.90;1.30;;;14.50;99.90;;;;;;5033555;28;20190;-75
2022/07/27 08:47:02;;;;;;;3.50;1.50;;;14.60;99.90;;;;;;5033245;28;20237;-74
2022/07/27 08:49:33;;;;;;;4.32;1.42;;;14.60;99.90;;;;;;5033522;28;20195;-74
2022/07/27 08:52:05;;;;;;;5.82;1.45;;;14.60;99.90;;;;;;5018604;28;20190;-74
2022/07/27 08:54:35;;;;;;;3.58;1.40;;;14.60;99.90;;;;;;5033222;28;20187;-75
2022/07/27 08:57:09;;;;;;;4.60;1.50;;;14.60;99.90;;;;;;5033557;28;20194;-74
2022/07/27 08:59:40;;;;;;;4.97;1.20;;;14.60;99.90;;;;;;5033295;28;20260;-75
2022/07/27 09:02:14;;;;;;;2.25;1.10;;;14.60;99.90;;;;;;5032811;28;20665;-75
2022/07/27 09:04:45;;;;;;;4.18;1.27;;;14.60;99.90;;;;;;5032803;28;20277;-75
2022/07/27 09:07:30;;;;;;;2.15;0.80;;;14.50;99.90;;;;;;5033246;28;20206;-75
2022/07/27 09:10:01;;;;;;;2.50;1.00;;;14.50;99.90;;;;;;5033130;28;20277;-75
2022/07/27 09:12:34;;;;;;;2.17;0.90;;;14.40;99.90;;;;;;5013587;28;20199;-76
2022/07/27 09:15:11;;;;;;;2.13;0.90;;;14.40;99.90;;;;;;5029659;28;20194;-76
2022/07/27 09:17:43;;;;;;;2.22;0.70;;;14.40;99.90;;;;;;5024255;28;20669;-75
2022/07/27 09:20:18;;;;;;;1.63;0.90;;;14.30;99.90;;;;;;5033098;28;20191;-76
2022/07/27 09:22:51;;;;;;;2.33;1.00;;;14.20;99.90;;;;;;5032876;28;20190;-76
2022/07/27 09:25:23;;;;;;;2.40;0.82;;;14.20;99.90;;;;;;5032898;28;20281;-75
2022/07/27 09:27:59;;;;;;;1.70;0.80;;;14.10;99.90;;;;;;5032802;28;20630;-74
2022/07/27 09:30:30;;;;;;;2.90;0.90;;;14.10;99.90;;;;;;5032283;28;20205;-76
2022/07/27 09:33:03;;;;;;;1.50;0.80;;;14.10;99.90;;;;;;5032782;28;20198;-75
2022/07/27 09:35:35;;;;;;;2.47;0.80;;;14.10;99.90;;;;;;5041385;28;20213;-75
2022/07/27 09:38:20;;;;;;;1.17;0.77;;;14.00;99.90;;;;;;5032868;28;20210;-75
2022/07/27 09:40:59;;;;;;;3.72;0.82;;;13.90;99.90;;;;;;5032569;28;20190;-76
2022/07/27 09:43:33;;;;;;;4.40;1.10;;;13.80;99.90;;;;;;5031341;28;20190;-76
2022/07/27 09:46:09;;;;;;;3.08;0.88;;;13.80;99.90;;;;;;5032267;28;20273;-74
2022/07/27 09:48:39;;;;;;;2.70;1.08;;;13.80;99.90;;;;;;5032391;28;20201;-72
2022/07/27 09:51:11;;;;;;;2.45;0.98;;;13.80;99.90;;;;;;5032769;28;20194;-74
2022/07/27 09:53:42;;;;;;;2.65;1.10;;;13.70;99.90;;;;;;5023334;28;20234;-72
2022/07/27 09:56:15;;;;;;;3.40;0.90;;;13.70;99.90;;;;;;5013076;28;20195;-73
2022/07/27 09:58:49;;;;;;;3.67;1.30;;;13.70;99.90;;;;;;5012675;28;20226;-75
2022/07/27 10:01:21;;;;;;;2.20;1.10;;;13.60;99.90;;;;;;5012841;28;20186;-72
2022/07/27 10:03:54;;;;;;;2.63;1.00;;;13.60;99.90;;;;;;5012842;28;20195;-75
2022/07/27 10:06:25;;;;;;;2.08;0.85;;;13.60;99.90;;;;;;5026550;28;20669;-73
2022/07/27 10:08:58;;;;;;;1.75;0.80;;;13.50;99.90;;;;;;5031771;28;20190;-74
2022/07/27 10:11:29;;;;;;;1.02;0.80;;;13.50;99.90;;;;;;5031895;28;20630;-74
2022/07/27 10:14:02;;;;;;;3.15;0.90;;;13.50;99.90;;;;;;5032182;28;20197;-74
2022/07/27 10:16:34;;;;;;;1.48;0.90;;;13.40;99.90;;;;;;5032253;28;20186;-75
2022/07/27 10:19:13;;;;;;;2.75;0.95;;;13.40;99.90;;;;;;5032329;28;20218;-74
2022/07/27 10:21:49;;;;;;;2.85;1.10;;;13.40;99.90;;;;;;5032053;28;20193;-73
2022/07/27 10:24:31;;;;;;;1.98;1.08;;;13.30;99.90;;;;;;5031830;28;20273;-73
2022/07/27 10:27:18;;;;;;;2.00;0.98;;;13.30;99.90;;;;;;5012686;28;20191;-74
2022/07/27 10:29:52;;;;;;;3.85;1.30;;;13.20;99.90;;;;;;5022869;28;20253;-73
2022/07/27 10:32:31;;;;;;;1.63;1.00;;;13.20;99.90;;;;;;5032486;28;20198;-73
2022/07/27 10:35:03;;;;;;;2.47;1.25;;;13.10;99.90;;;;;;5043093;28;20248;-75
2022/07/27 10:37:35;;;;;;;3.03;0.90;;;13.10;99.90;;;;;;5040657;28;20569;-74
2022/07/27 10:43:10;;;;;;;1.92;1.15;;;13.00;99.90;;;;;;5038271;28;20198;-73
2022/07/27 10:45:48;;;;;;;2.20;1.10;;;12.90;99.90;;;;;;5035730;28;20194;-73
2022/07/27 10:48:39;;;;;;;1.60;1.10;;;12.80;99.90;;;;;;5036063;28;20221;-72
2022/07/27 10:51:11;;;;;;;1.67;1.05;;;12.80;99.90;;;;;;5035975;28;20213;-74
2022/07/27 10:53:43;;;;;;;2.70;1.00;;;12.80;99.90;;;;;;5035998;28;20221;-73
2022/07/27 10:56:14;;;;;;;2.10;0.85;;;12.70;99.90;;;;;;5035850;28;20194;-73
2022/07/27 10:58:50;;;;;;;1.98;1.00;;;12.70;99.90;;;;;;5035838;28;20587;-73
2022/07/27 11:01:25;;;;;;;2.55;1.70;;;12.70;99.90;;;;;;5035623;28;20182;-72
2022/07/27 11:03:56;;;;;;;3.65;1.25;;;12.60;99.90;;;;;;5035584;28;20194;-73
2022/07/27 11:06:32;;;;;;;2.80;1.13;;;12.70;99.90;;;;;;5035866;28;20240;-73
2022/07/27 11:09:03;;;;;;;2.60;1.15;;;12.60;99.90;;;;;;5035730;28;20190;-72
2022/07/27 11:11:34;;;;;;;4.55;2.65;;;12.60;99.90;;;;;;5035524;28;20594;-74
2022/07/27 11:14:05;;;;;;;2.97;1.52;;;12.60;99.90;;;;;;5035629;28;20194;-73
2022/07/27 11:16:41;;;;;;;5.03;2.75;;;12.50;99.90;;;;;;5035471;28;20193;-72
2022/07/27 11:19:11;;;;;;;8.05;4.82;;;12.50;99.90;;;;;;5034998;28;20216;-72
2022/07/27 11:21:42;;;;;;;6.10;2.88;;;12.50;99.90;;;;;;5035291;28;20646;-73
2022/07/27 11:24:16;;;;;;;5.05;2.72;;;12.50;99.90;;;;;;5035341;28;20737;-72
2022/07/27 11:26:48;;;;;;;32.85;14.70;;;12.40;99.90;;;;;;5035176;28;20289;-72
2022/07/27 11:29:21;;;;;;;35.75;17.83;;;12.40;99.90;;;;;;5035353;28;20198;-72
2022/07/27 11:31:58;;;;;;;40.88;17.00;;;12.40;99.90;;;;;;5034993;28;20194;-71
2022/07/27 11:34:30;;;;;;;25.60;10.85;;;12.30;99.90;;;;;;5037531;28;20233;-71
2022/07/27 11:37:02;;;;;;;13.27;5.95;;;12.30;99.90;;;;;;5043526;28;20236;-71
2022/07/27 11:39:36;;;;;;;5.05;2.80;;;12.30;99.90;;;;;;5034816;28;20225;-72
2022/07/27 11:42:07;;;;;;;5.78;2.78;;;12.20;99.90;;;;;;5054680;28;20243;-71
2022/07/27 11:44:41;;;;;;;2.17;1.40;;;12.20;99.90;;;;;;5053551;28;20220;-72
2022/07/27 11:47:19;;;;;;;1.80;1.02;;;12.20;99.90;;;;;;5039909;28;20194;-72
2022/07/27 11:49:49;;;;;;;2.42;1.13;;;12.10;99.90;;;;;;5034953;28;20210;-71
2022/07/27 11:52:22;;;;;;;0.88;0.77;;;12.10;99.90;;;;;;5034871;28;20209;-71
2022/07/27 11:54:54;;;;;;;2.50;0.90;;;12.10;99.90;;;;;;5034546;28;20190;-72
2022/07/27 11:57:34;;;;;;;0.88;0.70;;;12.00;99.90;;;;;;5034828;28;20646;-71
2022/07/27 12:00:05;;;;;;;2.25;0.90;;;12.00;99.90;;;;;;5035025;28;20232;-74
2022/07/27 12:02:38;;;;;;;1.88;0.70;;;11.90;99.90;;;;;;5033930;28;20198;-71
2022/07/27 12:05:12;;;;;;;1.02;0.77;;;11.90;99.90;;;;;;5034727;28;20194;-71
2022/07/27 12:07:44;;;;;;;2.28;0.93;;;11.80;99.90;;;;;;5034744;28;20190;-71
2022/07/27 12:10:15;;;;;;;1.83;0.90;;;11.80;99.90;;;;;;5034471;28;20190;-73
2022/07/27 12:12:52;;;;;;;2.88;0.90;;;11.80;99.90;;;;;;5034511;28;20281;-75
2022/07/27 12:15:23;;;;;;;1.13;0.80;;;11.80;99.90;;;;;;5033991;28;20283;-75
2022/07/27 12:18:00;;;;;;;2.28;0.90;;;11.80;99.90;;;;;;5034348;28;20191;-75
2022/07/27 12:20:36;;;;;;;1.73;0.82;;;11.70;99.90;;;;;;5034307;28;20312;-75
2022/07/27 12:23:08;;;;;;;1.23;0.70;;;11.70;99.90;;;;;;5034024;28;20586;-75
2022/07/27 12:25:40;;;;;;;1.77;0.82;;;11.70;99.90;;;;;;5034248;28;20197;-75
2022/07/27 12:28:12;;;;;;;2.72;0.80;;;11.60;99.90;;;;;;5034195;28;20194;-75
2022/07/27 12:30:45;;;;;;;1.48;0.70;;;11.70;99.90;;;;;;5033875;28;20194;-75
2022/07/27 12:33:31;;;;;;;1.58;0.75;;;11.60;99.90;;;;;;5033490;28;20241;-75
2022/07/27 12:36:03;;;;;;;2.97;1.00;;;11.60;99.90;;;;;;5045991;28;20232;-75
2022/07/27 12:38:40;;;;;;;1.00;0.70;;;11.60;99.90;;;;;;5033835;28;20190;-75
2022/07/27 12:41:12;;;;;;;1.30;0.90;;;11.60;99.90;;;;;;5033728;28;20198;-76
2022/07/27 12:43:42;;;;;;;2.63;1.10;;;11.60;99.90;;;;;;5033854;28;20567;-75
2022/07/27 12:46:16;;;;;;;1.88;1.10;;;11.60;99.90;;;;;;5033903;28;20197;-74
2022/07/27 12:48:49;;;;;;;1.80;1.00;;;11.60;99.90;;;;;;5045841;28;20522;-75
2022/07/27 12:51:25;;;;;;;3.10;1.10;;;11.60;99.90;;;;;;5013968;28;20551;-75
2022/07/27 12:53:55;;;;;;;2.13;1.30;;;11.60;99.90;;;;;;5030839;28;20199;-76
2022/07/27 12:56:26;;;;;;;1.77;1.02;;;11.60;99.90;;;;;;5033476;28;20190;-76
2022/07/27 12:59:05;;;;;;;2.67;1.20;;;11.60;99.90;;;;;;5033617;28;20281;-75
2022/07/27 13:01:35;;;;;;;3.75;1.30;;;11.60;99.90;;;;;;5033559;28;20193;-74
2022/07/27 13:04:08;;;;;;;2.75;1.30;;;11.50;99.90;;;;;;5033524;28;20631;-75
2022/07/27 13:06:39;;;;;;;3.05;1.30;;;11.50;99.90;;;;;;5033354;28;20666;-75
2022/07/27 13:09:09;;;;;;;1.40;1.10;;;11.50;99.90;;;;;;5033176;28;20273;-74
2022/07/27 13:11:41;;;;;;;1.67;1.17;;;11.40;99.90;;;;;;5033262;28;20213;-75
2022/07/27 13:14:12;;;;;;;2.78;1.40;;;11.40;99.90;;;;;;5032835;28;20190;-75
2022/07/27 13:16:42;;;;;;;5.28;1.38;;;11.40;99.90;;;;;;5032974;28;20201;-75